Time;durP1;ratioP1;P1;durP2;ratioP2;P2;SDS_P1;SDS_P2;PMS_P1;PMS_P2;Temp;Humidity;BMP_temperature;BMP_pressure;BME280_temperature;BME280_humidity;BME280_pressure;Samples;Min_cycle;Max_cycle;Signal;HPM_P1;HPM_P2
2022/08/02 00:02:44;;;;;;;1.30;1.20;;;;;;;;;;4971038;28;20231;-89
2022/08/02 00:05:24;;;;;;;1.73;1.50;;;;;;;;;;4976941;28;20219;-89
2022/08/02 00:08:03;;;;;;;1.27;1.23;;;;;;;;;;4972525;28;20203;-89
2022/08/02 00:10:33;;;;;;;1.40;1.30;;;;;;;;;;4983058;28;20235;-89
2022/08/02 00:13:00;;;;;;;1.50;1.40;;;;;;;;;;4980949;28;20232;-89
2022/08/02 00:15:29;;;;;;;1.55;1.45;;;;;;;;;;4976095;28;20199;-89
2022/08/02 00:18:06;;;;;;;1.63;1.52;;;;;;;;;;4981163;28;20207;-89
2022/08/02 00:20:43;;;;;;;1.55;1.40;;;;;;;;;;4980142;28;20701;-89
2022/08/02 00:23:15;;;;;;;1.52;1.30;;;;;;;;;;4993020;28;20226;-88
2022/08/02 00:25:49;;;;;;;1.40;1.30;;;;;;;;;;4990808;28;20208;-88
2022/08/02 00:28:37;;;;;;;1.60;1.50;;;;;;;;;;4979345;28;20214;-89
2022/08/02 00:31:07;;;;;;;1.40;1.30;;;;;;;;;;4992769;28;20612;-89
2022/08/02 00:33:38;;;;;;;1.60;1.50;;;;;;;;;;4993059;28;20203;-89
2022/08/02 00:36:06;;;;;;;1.83;1.63;;;;;;;;;;4985655;28;20310;-88
2022/08/02 00:38:58;;;;;;;1.73;1.52;;;;;;;;;;4974174;28;20210;-88
2022/08/02 00:41:29;;;;;;;1.45;1.30;;;;;;;;;;4973872;28;20271;-89
2022/08/02 00:44:00;;;;;;;1.63;1.52;;;;;;;;;;4989939;28;20253;-89
2022/08/02 00:46:34;;;;;;;1.58;1.48;;;;;;;;;;4980870;28;20204;-88
2022/08/02 00:49:02;;;;;;;3.65;1.70;;;;;;;;;;4978699;28;20218;-89
2022/08/02 00:51:40;;;;;;;2.00;1.55;;;;;;;;;;4980007;28;20231;-88
2022/08/02 00:54:13;;;;;;;1.60;1.50;;;;;;;;;;4986451;28;20206;-88
2022/08/02 00:56:45;;;;;;;1.63;1.52;;;;;;;;;;4968525;28;20227;-88
2022/08/02 00:59:17;;;;;;;1.90;1.70;;;;;;;;;;4984894;28;20262;-88
2022/08/02 01:01:51;;;;;;;1.65;1.55;;;;;;;;;;4975515;28;20232;-88
2022/08/02 01:04:26;;;;;;;1.70;1.60;;;;;;;;;;4976324;28;20235;-88
2022/08/02 01:06:55;;;;;;;1.58;1.48;;;;;;;;;;4987870;28;20231;-89
2022/08/02 01:09:26;;;;;;;1.40;1.30;;;;;;;;;;4991830;28;20211;-88
2022/08/02 01:11:56;;;;;;;1.70;1.60;;;;;;;;;;4976503;28;20279;-89
2022/08/02 01:17:07;;;;;;;1.73;1.63;;;;;;;;;;4972680;28;20255;-88
2022/08/02 01:19:41;;;;;;;1.80;1.52;;;;;;;;;;4981818;28;20208;-88
2022/08/02 01:22:28;;;;;;;1.70;1.60;;;;;;;;;;4967802;28;20267;-89
2022/08/02 01:28:45;;;;;;;;;;;;;;;;;;;;;
2022/08/02 01:34:44;;;;;;;1.65;1.50;;;;;;;;;;4983726;28;20257;-89
2022/08/02 01:37:15;;;;;;;1.73;1.58;;;;;;;;;;4970628;28;20207;-88
2022/08/02 01:39:44;;;;;;;1.70;1.45;;;;;;;;;;4991782;28;20238;-88
2022/08/02 01:42:25;;;;;;;1.77;1.67;;;;;;;;;;4989000;28;20215;-88
2022/08/02 01:44:57;;;;;;;1.88;1.52;;;;;;;;;;4975329;28;20223;-88
2022/08/02 01:47:36;;;;;;;1.42;1.33;;;;;;;;;;4984835;28;20213;-88
2022/08/02 01:50:06;;;;;;;1.83;1.73;;;;;;;;;;4974309;28;20226;-88
2022/08/02 01:55:36;;;;;;;1.67;1.58;;;;;;;;;;4974293;28;20199;-88
2022/08/02 02:04:17;;;;;;;2.20;1.77;;;;;;;;;;4972221;28;20268;-89
2022/08/02 02:06:45;;;;;;;1.80;1.65;;;;;;;;;;4981507;28;20239;-88
2022/08/02 02:09:21;;;;;;;2.05;1.50;;;;;;;;;;4979090;28;20219;-88
2022/08/02 02:12:07;;;;;;;1.70;1.60;;;;;;;;;;4991591;28;20223;-88
2022/08/02 02:14:43;;;;;;;1.80;1.70;;;;;;;;;;4974799;28;20236;-88
2022/08/02 02:17:16;;;;;;;2.33;1.60;;;;;;;;;;4967274;28;20246;-87
2022/08/02 02:19:57;;;;;;;1.52;1.42;;;;;;;;;;4987733;28;20241;-88
2022/08/02 02:22:31;;;;;;;1.80;1.70;;;;;;;;;;4991929;28;20258;-89
2022/08/02 02:25:01;;;;;;;1.48;1.38;;;;;;;;;;4979210;28;20228;-88
2022/08/02 02:27:31;;;;;;;1.73;1.50;;;;;;;;;;4977399;28;20208;-88
2022/08/02 02:30:00;;;;;;;1.48;1.38;;;;;;;;;;4975108;28;20278;-88
2022/08/02 02:32:31;;;;;;;1.55;1.45;;;;;;;;;;4993465;28;20215;-87
2022/08/02 02:38:18;;;;;;;1.70;1.60;;;;;;;;;;4975017;28;20204;-88
2022/08/02 02:44:05;;;;;;;1.65;1.55;;;;;;;;;;4977954;28;20220;-88
2022/08/02 02:46:48;;;;;;;1.60;1.50;;;;;;;;;;4990435;28;20327;-89
2022/08/02 02:49:24;;;;;;;1.63;1.50;;;;;;;;;;4982847;28;20267;-88
2022/08/02 02:52:00;;;;;;;1.95;1.60;;;;;;;;;;4988749;28;20737;-88
2022/08/02 02:54:28;;;;;;;1.73;1.63;;;;;;;;;;4979679;28;20262;-87
2022/08/02 02:56:59;;;;;;;1.60;1.50;;;;;;;;;;4975766;28;20203;-88
2022/08/02 02:59:30;;;;;;;1.88;1.42;;;;;;;;;;4982609;28;20212;-88
2022/08/02 03:02:27;;;;;;;1.60;1.50;;;;;;;;;;4988386;28;20286;-88
2022/08/02 03:04:55;;;;;;;1.50;1.40;;;;;;;;;;4970548;28;20234;-88
2022/08/02 03:07:25;;;;;;;1.80;1.40;;;;;;;;;;4975662;28;20204;-88
2022/08/02 03:09:53;;;;;;;1.70;1.60;;;;;;;;;;4976066;28;20312;-88
2022/08/02 03:12:26;;;;;;;1.60;1.50;;;;;;;;;;4975856;28;20218;-88
2022/08/02 03:15:10;;;;;;;2.22;1.42;;;;;;;;;;4976226;28;20208;-88
2022/08/02 03:18:12;;;;;;;;;;;;;;;;;;;;;
2022/08/02 03:20:52;;;;;;;1.70;1.60;;;;;;;;;;4973312;28;20234;-88
2022/08/02 03:23:21;;;;;;;1.60;1.45;;;;;;;;;;4984838;28;20530;-87
2022/08/02 03:25:48;;;;;;;1.60;1.50;;;;;;;;;;4990182;28;20275;-87
2022/08/02 03:28:21;;;;;;;1.45;1.35;;;;;;;;;;4981262;28;20219;-88
2022/08/02 03:36:32;;;;;;;1.70;1.60;;;;;;;;;;4987328;28;20215;-88
2022/08/02 03:39:15;;;;;;;1.52;1.42;;;;;;;;;;4991750;28;20294;-88
2022/08/02 03:41:52;;;;;;;1.58;1.48;;;;;;;;;;4981438;28;20239;-88
2022/08/02 03:50:01;;;;;;;1.42;1.33;;;;;;;;;;4974189;28;20232;-88
2022/08/02 03:52:29;;;;;;;1.60;1.50;;;;;;;;;;4981551;28;20219;-89
2022/08/02 03:54:57;;;;;;;1.67;1.55;;;;;;;;;;4987336;28;20239;-88
2022/08/02 03:57:33;;;;;;;1.70;1.60;;;;;;;;;;4984414;28;20218;-89
2022/08/02 04:00:06;;;;;;;1.50;1.40;;;;;;;;;;4981738;28;20262;-88
2022/08/02 04:02:40;;;;;;;1.75;1.65;;;;;;;;;;4994215;28;20666;-88
2022/08/02 04:05:08;;;;;;;1.63;1.52;;;;;;;;;;4980057;28;20227;-88
2022/08/02 04:07:37;;;;;;;1.85;1.60;;;;;;;;;;4979516;28;20214;-88
2022/08/02 04:10:08;;;;;;;2.05;1.42;;;;;;;;;;4975018;28;20230;-88
2022/08/02 04:12:38;;;;;;;1.65;1.55;;;;;;;;;;4974487;28;20215;-89
2022/08/02 04:15:10;;;;;;;1.50;1.40;;;;;;;;;;4986624;28;20207;-89
2022/08/02 04:17:42;;;;;;;2.10;1.70;;;;;;;;;;4993063;28;20207;-88
2022/08/02 04:20:19;;;;;;;1.50;1.40;;;;;;;;;;4980186;28;20344;-88
2022/08/02 04:22:48;;;;;;;1.65;1.52;;;;;;;;;;4979442;28;20210;-87
2022/08/02 04:25:21;;;;;;;1.52;1.42;;;;;;;;;;4979676;28;20729;-88
2022/08/02 04:27:55;;;;;;;1.77;1.67;;;;;;;;;;4974521;28;20588;-88
2022/08/02 04:30:33;;;;;;;1.50;1.40;;;;;;;;;;4974236;28;20226;-88
2022/08/02 04:33:05;;;;;;;1.40;1.30;;;;;;;;;;4977406;28;20212;-88
2022/08/02 04:35:43;;;;;;;1.90;1.60;;;;;;;;;;4977755;28;20208;-88
2022/08/02 04:38:11;;;;;;;1.63;1.52;;;;;;;;;;4974304;28;20231;-88
2022/08/02 04:40:38;;;;;;;1.60;1.50;;;;;;;;;;4984729;28;20274;-88
2022/08/02 04:43:11;;;;;;;2.13;1.60;;;;;;;;;;4986315;28;20214;-88
2022/08/02 04:45:38;;;;;;;1.60;1.50;;;;;;;;;;4984230;28;20215;-88
2022/08/02 04:48:06;;;;;;;2.03;1.60;;;;;;;;;;4986715;28;20210;-88
2022/08/02 04:50:34;;;;;;;1.60;1.50;;;;;;;;;;4979257;28;20240;-88
2022/08/02 04:53:01;;;;;;;1.73;1.50;;;;;;;;;;4980375;28;20227;-88
2022/08/02 04:55:40;;;;;;;1.70;1.60;;;;;;;;;;4991592;28;20207;-88
2022/08/02 04:58:16;;;;;;;1.80;1.70;;;;;;;;;;4980049;28;20227;-89
2022/08/02 05:00:45;;;;;;;1.88;1.70;;;;;;;;;;4968647;28;20243;-88
2022/08/02 05:03:15;;;;;;;2.75;1.80;;;;;;;;;;4974516;28;20204;-88
2022/08/02 05:05:43;;;;;;;1.55;1.45;;;;;;;;;;4978896;28;20247;-88
2022/08/02 05:08:10;;;;;;;1.60;1.50;;;;;;;;;;4976439;28;20208;-89
2022/08/02 05:10:38;;;;;;;1.85;1.70;;;;;;;;;;4976542;28;20220;-88
2022/08/02 05:13:06;;;;;;;2.15;1.50;;;;;;;;;;4979683;28;20203;-87
2022/08/02 05:15:35;;;;;;;1.73;1.63;;;;;;;;;;4981155;28;20203;-88
2022/08/02 05:20:47;;;;;;;1.85;1.75;;;;;;;;;;4973705;28;20223;-89
2022/08/02 05:23:14;;;;;;;1.92;1.80;;;;;;;;;;4973221;28;20216;-88
2022/08/02 05:25:42;;;;;;;1.95;1.75;;;;;;;;;;4976253;28;20220;-88
2022/08/02 05:31:00;;;;;;;2.72;1.80;;;;;;;;;;4932003;28;20237;-87
2022/08/02 05:33:30;;;;;;;1.95;1.35;;;;;;;;;;4979929;28;20214;-88
2022/08/02 05:36:08;;;;;;;1.70;1.60;;;;;;;;;;4978946;28;20228;-88
2022/08/02 05:38:42;;;;;;;1.80;1.70;;;;;;;;;;4972748;28;20207;-88
2022/08/02 05:41:13;;;;;;;2.25;1.63;;;;;;;;;;4971820;28;20246;-87
2022/08/02 05:43:53;;;;;;;2.50;1.90;;;;;;;;;;4973660;28;20200;-87
2022/08/02 05:46:24;;;;;;;2.17;1.52;;;;;;;;;;4972870;28;20235;-88
2022/08/02 05:48:51;;;;;;;1.60;1.50;;;;;;;;;;4984558;28;20213;-87
2022/08/02 05:51:34;;;;;;;1.85;1.70;;;;;;;;;;4992454;28;20220;-88
2022/08/02 05:54:13;;;;;;;1.90;1.80;;;;;;;;;;4980042;28;20207;-88
2022/08/02 05:56:45;;;;;;;1.95;1.75;;;;;;;;;;4980971;28;20204;-89
2022/08/02 05:59:14;;;;;;;1.90;1.70;;;;;;;;;;4975088;28;20208;-89
2022/08/02 06:01:53;;;;;;;2.45;1.60;;;;;;;;;;5028315;22;20229;-90
2022/08/02 06:13:10;;;;;;;2.10;1.70;;;;;;;;;;4991646;28;20209;-89
2022/08/02 06:15:41;;;;;;;1.88;1.73;;;;;;;;;;5017035;28;20226;-90
2022/08/02 06:21:02;;;;;;;2.40;2.17;;;;;;;;;;5015564;28;20313;-90
2022/08/02 06:23:34;;;;;;;2.40;1.83;;;;;;;;;;5016944;28;20234;-89
2022/08/02 06:26:25;;;;;;;2.10;1.70;;;;;;;;;;5029288;28;20260;-91
2022/08/02 06:28:58;;;;;;;1.98;1.77;;;;;;;;;;5012892;28;20249;-90
2022/08/02 06:34:28;;;;;;;2.33;1.58;;;;;;;;;;5028442;28;20604;-90
2022/08/02 06:43:07;;;;;;;2.13;1.90;;;;;;;;;;5027161;28;20571;-91
2022/08/02 06:45:35;;;;;;;2.03;1.80;;;;;;;;;;5014045;28;20232;-90
2022/08/02 06:48:45;;;;;;;3.20;1.90;;;;;;;;;;5016522;28;20206;-93
2022/08/02 06:51:42;;;;;;;2.55;1.85;;;;;;;;;;5005258;28;20222;-92
2022/08/02 06:54:12;;;;;;;3.30;1.90;;;;;;;;;;5000265;28;20266;-89
2022/08/02 06:57:05;;;;;;;1.85;1.33;;;;;;;;;;5015641;28;20274;-90
2022/08/02 06:59:45;;;;;;;;;;;;;;;;;;;;;
2022/08/02 07:13:46;;;;;;;3.47;2.00;;;;;;;;;;4996843;28;20209;-89
2022/08/02 07:16:17;;;;;;;2.60;1.90;;;;;;;;;;4996052;28;20575;-90
2022/08/02 07:18:45;;;;;;;2.50;2.08;;;;;;;;;;4995908;28;20238;-91
2022/08/02 08:32:44;;;;;;;3.90;3.60;;;;;;;;;;4989567;28;20732;-89
2022/08/02 08:35:13;;;;;;;3.60;3.20;;;;;;;;;;4984334;28;20277;-88
2022/08/02 08:55:35;;;;;;;3.97;3.58;;;;;;;;;;4966123;22;20290;-89
2022/08/02 09:04:12;;;;;;;5.00;3.90;;;;;;;;;;5133859;22;20230;-87
2022/08/02 09:06:40;;;;;;;4.18;3.88;;;;;;;;;;4991713;28;20227;-88
2022/08/02 09:09:12;;;;;;;4.30;3.80;;;;;;;;;;4993458;28;20215;-90
2022/08/02 09:11:42;;;;;;;4.15;3.78;;;;;;;;;;4990794;28;20250;-88
2022/08/02 09:17:15;;;;;;;4.07;3.72;;;;;;;;;;4988945;28;20571;-88
2022/08/02 09:20:12;;;;;;;4.72;4.13;;;;;;;;;;4985773;28;20208;-90
2022/08/02 09:23:11;;;;;;;4.50;4.10;;;;;;;;;;4961169;28;20286;-88
2022/08/02 12:23:30;;;;;;;4.68;3.35;;;;;;;;;;5098903;23;20234;-89
2022/08/02 12:26:04;;;;;;;3.97;3.60;;;;;;;;;;5010552;28;20305;-89
2022/08/02 12:28:38;;;;;;;4.38;3.42;;;;;;;;;;5011862;28;20190;-90
2022/08/02 12:31:12;;;;;;;3.72;3.42;;;;;;;;;;5016913;28;20257;-90
2022/08/02 12:33:50;;;;;;;3.78;3.47;;;;;;;;;;5014853;28;20209;-89
2022/08/02 12:36:33;;;;;;;;;;;;;;;;;;;;;
2022/08/02 12:39:02;;;;;;;3.63;3.33;;;;;;;;;;5011932;28;20593;-91
2022/08/02 12:44:25;;;;;;;3.55;3.25;;;;;;;;;;5016377;28;20211;-92
2022/08/02 12:47:41;;;;;;;3.65;3.38;;;;;;;;;;5014918;28;20226;-91
2022/08/02 13:19:07;;;;;;;9.90;5.13;;;;;;;;;;5014412;28;20221;-89
2022/08/02 13:21:35;;;;;;;7.43;4.43;;;;;;;;;;5013661;28;20218;-88
2022/08/02 13:24:22;;;;;;;5.40;3.60;;;;;;;;;;5032636;28;20208;-90
2022/08/02 13:26:50;;;;;;;6.10;3.58;;;;;;;;;;5029192;28;20297;-89
2022/08/02 13:29:40;;;;;;;4.40;3.60;;;;;;;;;;5019561;28;20214;-89
2022/08/02 13:32:28;;;;;;;3.40;3.03;;;;;;;;;;5036352;28;20233;-89
2022/08/02 13:35:07;;;;;;;4.00;3.70;;;;;;;;;;5023968;28;20213;-90
2022/08/02 14:02:18;;;;;;;14.82;4.05;;;;;;;;;;4845748;29;20320;-92
2022/08/02 14:05:30;;;;;;;6.50;3.30;;;;;;;;;;4891260;29;20241;-91
2022/08/02 14:10:56;;;;;;;3.15;2.92;;;;;;;;;;4919897;29;20281;-91
2022/08/02 14:22:54;;;;;;;3.40;3.15;;;;;;;;;;4926171;29;20297;-91
2022/08/02 16:14:32;;;;;;;2.83;2.63;;;;;;;;;;5043036;23;20229;-92
2022/08/02 16:17:25;;;;;;;2.70;2.50;;;;;;;;;;5051470;28;20201;-92
2022/08/02 16:20:32;;;;;;;2.80;2.60;;;;;;;;;;5050267;28;20292;-90
2022/08/02 16:23:13;;;;;;;4.13;2.78;;;;;;;;;;5054110;28;20279;-90
2022/08/02 16:25:42;;;;;;;2.97;2.78;;;;;;;;;;5052703;28;20201;-91
2022/08/02 16:28:09;;;;;;;2.90;2.60;;;;;;;;;;5048371;28;20664;-90
2022/08/02 16:31:03;;;;;;;2.60;2.40;;;;;;;;;;5048777;28;20239;-90
2022/08/02 16:33:30;;;;;;;3.35;2.97;;;;;;;;;;5048499;28;20858;-91
2022/08/02 16:36:01;;;;;;;3.17;2.60;;;;;;;;;;5052244;28;20240;-90
2022/08/02 16:38:28;;;;;;;2.92;2.72;;;;;;;;;;5045363;28;20212;-91
2022/08/02 16:41:16;;;;;;;3.03;2.70;;;;;;;;;;5047535;28;20312;-90
2022/08/02 16:46:32;;;;;;;3.20;2.90;;;;;;;;;;5050107;28;20228;-89
2022/08/02 16:52:15;;;;;;;3.20;2.90;;;;;;;;;;5048929;28;20250;-89
2022/08/02 17:04:53;;;;;;;3.88;3.42;;;;;;;;;;4892494;29;20211;-89
2022/08/02 17:10:46;;;;;;;3.17;2.97;;;;;;;;;;4901924;29;20210;-88
2022/08/02 17:31:30;;;;;;;6.13;3.15;;;;;;;;;;4935749;28;20752;-89
2022/08/02 17:34:17;;;;;;;3.17;2.88;;;;;;;;;;4977944;28;20211;-90
2022/08/02 17:37:03;;;;;;;;;;;;;;;;;;;;;
2022/08/02 17:39:33;;;;;;;3.67;3.03;;;;;;;;;;4989225;28;20206;-89
2022/08/02 18:01:48;;;;;;;4.97;2.90;;;;;;;;;;5574595;23;20230;-82
2022/08/02 18:07:05;;;;;;;2.75;2.55;;;;;;;;;;5015809;28;20831;-83
2022/08/02 18:09:41;;;;;;;2.78;2.58;;;;;;;;;;5017445;28;20206;-83
2022/08/02 18:12:16;;;;;;;3.03;2.70;;;;;;;;;;5004801;28;20229;-83
2022/08/02 18:14:51;;;;;;;2.88;2.67;;;;;;;;;;5000455;28;20627;-84
2022/08/02 18:23:31;;;;;;;3.13;2.50;;;;;;;;;;4876765;29;20229;-85
2022/08/02 18:26:21;;;;;;;2.70;2.35;;;;;;;;;;4901838;29;20293;-84
2022/08/02 18:28:48;;;;;;;2.22;2.13;;;;;;;;;;4981624;28;20227;-83
2022/08/02 18:31:16;;;;;;;2.50;2.30;;;;;;;;;;4999701;28;20574;-84
2022/08/02 18:33:48;;;;;;;2.35;2.25;;;;;;;;;;4993003;28;20204;-84
2022/08/02 18:39:33;;;;;;;3.40;2.38;;;;;;;;;;4996019;28;20276;-84
2022/08/02 18:42:19;;;;;;;2.85;2.30;;;;;;;;;;4999406;28;20226;-84
2022/08/02 18:47:49;;;;;;;;;;;;;;;;;;;;;
2022/08/02 18:56:23;;;;;;;2.38;2.22;;;;;;;;;;4884112;29;20303;-85
2022/08/02 18:58:53;;;;;;;3.38;2.50;;;;;;;;;;4940839;28;20211;-84
2022/08/02 19:01:20;;;;;;;2.33;2.17;;;;;;;;;;4995089;28;20238;-85
2022/08/02 19:03:51;;;;;;;2.30;2.20;;;;;;;;;;5001965;28;20632;-84
2022/08/02 19:06:23;;;;;;;2.60;2.47;;;;;;;;;;4994176;28;20210;-84
2022/08/02 19:08:51;;;;;;;2.50;2.38;;;;;;;;;;4996341;28;20207;-84
2022/08/02 19:11:20;;;;;;;2.38;2.17;;;;;;;;;;5000143;28;20305;-83
2022/08/02 19:13:51;;;;;;;2.78;2.38;;;;;;;;;;4998900;28;20213;-83
2022/08/02 19:16:22;;;;;;;2.50;2.40;;;;;;;;;;4999944;28;20204;-84
2022/08/02 19:18:52;;;;;;;2.63;2.42;;;;;;;;;;4997957;28;20656;-82
2022/08/02 19:21:21;;;;;;;2.53;2.33;;;;;;;;;;4995346;28;20278;-83
2022/08/02 19:23:56;;;;;;;2.83;2.63;;;;;;;;;;4994445;28;20199;-83
2022/08/02 19:26:26;;;;;;;7.65;3.75;;;;;;;;;;5002203;28;20207;-85
2022/08/02 19:28:53;;;;;;;32.53;8.18;;;;;;;;;;4996762;28;20265;-82
2022/08/02 19:31:22;;;;;;;34.53;9.88;;;;;;;;;;4998417;28;20263;-83
2022/08/02 19:33:53;;;;;;;28.23;8.30;;;;;;;;;;5001524;28;20238;-83
2022/08/02 19:36:22;;;;;;;31.45;9.80;;;;;;;;;;4998971;28;20210;-84
2022/08/02 21:31:20;;;;;;;4.97;3.47;;;;;;;;;;4938861;28;20216;-87
2022/08/02 21:37:37;;;;;;;3.85;3.47;;;;;;;;;;4853424;29;20295;-87
2022/08/02 22:01:56;;;;;;;3.35;2.97;;;;;;;;;;4843077;29;20239;-87
2022/08/02 22:07:41;;;;;;;3.60;3.22;;;;;;;;;;4842142;29;20228;-87
2022/08/02 22:13:34;;;;;;;3.58;3.28;;;;;;;;;;4911884;27;6106764;-87
2022/08/02 22:16:30;;;;;;;3.15;2.95;;;;;;;;;;5100302;28;20199;-87
2022/08/02 22:19:21;;;;;;;3.50;2.90;;;;;;;;;;5097203;28;20207;-86
2022/08/02 22:34:16;;;;;;;3.03;2.83;;;;;;;;;;5094142;28;20599;-86
2022/08/02 22:40:40;;;;;;;2.90;2.70;;;;;;;;;;5044534;28;20205;-86
2022/08/02 22:43:16;;;;;;;3.00;2.78;;;;;;;;;;5042561;28;20214;-87
2022/08/02 22:45:55;;;;;;;2.90;2.70;;;;;;;;;;5032992;28;20206;-87
2022/08/02 22:48:24;;;;;;;3.28;2.97;;;;;;;;;;5039573;28;20219;-87
2022/08/02 22:51:00;;;;;;;2.63;2.50;;;;;;;;;;5046001;28;20282;-87
2022/08/02 22:53:27;;;;;;;2.90;2.70;;;;;;;;;;5040723;28;20209;-87
2022/08/02 22:55:54;;;;;;;2.78;2.58;;;;;;;;;;5045816;28;20327;-87
2022/08/02 22:58:33;;;;;;;2.90;2.70;;;;;;;;;;5040622;28;20255;-87
2022/08/02 23:01:02;;;;;;;2.88;2.67;;;;;;;;;;5037521;28;20237;-88
2022/08/02 23:03:36;;;;;;;3.10;2.90;;;;;;;;;;5036658;28;20209;-87
2022/08/02 23:06:08;;;;;;;3.00;2.70;;;;;;;;;;5044479;28;20210;-87
2022/08/02 23:08:38;;;;;;;2.90;2.70;;;;;;;;;;5036363;28;20264;-87
2022/08/02 23:11:07;;;;;;;3.00;2.70;;;;;;;;;;5027930;28;20222;-87
2022/08/02 23:13:37;;;;;;;3.50;3.13;;;;;;;;;;5029435;28;20206;-87
2022/08/02 23:22:01;;;;;;;2.90;2.70;;;;;;;;;;5091762;28;20273;-87
2022/08/02 23:24:31;;;;;;;3.05;2.75;;;;;;;;;;5083188;28;20770;-87
2022/08/02 23:27:04;;;;;;;2.80;2.60;;;;;;;;;;5080568;28;20713;-86
2022/08/02 23:29:32;;;;;;;3.10;2.90;;;;;;;;;;5088357;28;20212;-87
2022/08/02 23:32:03;;;;;;;3.17;2.50;;;;;;;;;;5076353;28;20220;-87
2022/08/02 23:34:33;;;;;;;3.28;2.97;;;;;;;;;;5088094;28;20215;-85
2022/08/02 23:37:02;;;;;;;2.97;2.72;;;;;;;;;;5088188;28;20208;-87
2022/08/02 23:39:30;;;;;;;2.80;2.60;;;;;;;;;;5074929;28;20206;-87
2022/08/02 23:41:59;;;;;;;2.90;2.67;;;;;;;;;;5075051;28;20228;-86
2022/08/02 23:44:27;;;;;;;3.20;2.53;;;;;;;;;;5074888;28;20212;-87
2022/08/02 23:46:55;;;;;;;2.70;2.50;;;;;;;;;;5081082;28;20212;-87
2022/08/02 23:49:24;;;;;;;3.03;2.72;;;;;;;;;;5076500;28;20197;-87
2022/08/02 23:51:54;;;;;;;2.83;2.55;;;;;;;;;;5081071;28;20814;-88
2022/08/02 23:54:27;;;;;;;2.95;2.75;;;;;;;;;;5075693;28;20245;-88
2022/08/02 23:56:54;;;;;;;2.75;2.55;;;;;;;;;;5083321;28;20201;-87
2022/08/02 23:59:23;;;;;;;2.90;2.70;;;;;;;;;;5075950;28;20204;-87
